Startpagina
METAR-TAF:

METAR-TAF

Vliegvelden :

Tsjita, Rusland

breedte: 52-05N, lengte: 113-29E, hoogte: 685 m

Actueel weer

Dit bericht is 25 minuten geleden gemaakt, om 18:30 UTC
Wind 4 kt uit het noordnoordoosten
Temperatuur -3°C
Vochtigheid 74%
Druk 1026 hPa
Zicht 10 km of meer

METAR: UIAA 151830Z AUTO 03002MPS 9999 NCD M03/M07 Q1026 RMK QFE710/0947

Tijdstip: 03:55 (18:55 UTC)

Verwachting

Dit bericht is 1 uur en het 55 minuten geleden gemaakt, om 17:00 UTC
Verwachting geldig van 15 om 18 UTC tot 16 om 18 UTC
Wind 6 kt uit het noordoosten
Zicht 10 km of meer
Tijdelijke
van 15 om 18 UTC tot 16 om 01 UTC
Zicht: 3100 m
nevel

TAF: UIAA 151700Z 1518/1618 04003MPS 9999 NSC TEMPO 1518/1601 3100 BR

Waarnemingen en weersverwachtingen van meer dan 4000 vliegvelden (METAR en TAF).

De beschikbare stations zijn de gele en rode punten op de kaart.

Ga met uw muis naar het station om de naam te zien.

Klik dan om waarnemingen en weersverwachtingen te zien.

kaart wijzigen: klik op de groene knoppen met een zwart kruis om in te zoomen, op de groene knop met een streepje om uit te zoomen of op de groene pijlen voor aangrenzende kaarten.


METAR-TAF: